sensor_id;sensor_type;location;lat;lon;timestamp;temperature;humidity
15821;DHT22;8011;51.650;7.240;2022-10-31T04:02:03;13.20;99.90
15821;DHT22;8011;51.650;7.240;2022-10-31T04:04:32;13.10;99.90
15821;DHT22;8011;51.650;7.240;2022-10-31T04:07:00;13.00;99.90
15821;DHT22;8011;51.650;7.240;2022-10-31T04:09:27;13.00;99.90
15821;DHT22;8011;51.650;7.240;2022-10-31T04:11:55;13.00;99.90
15821;DHT22;8011;51.650;7.240;2022-10-31T04:14:24;13.00;99.90
15821;DHT22;8011;51.650;7.240;2022-10-31T04:16:51;13.00;99.90
15821;DHT22;8011;51.650;7.240;2022-10-31T04:19:21;12.90;99.90
15821;DHT22;8011;51.650;7.240;2022-10-31T04:21:47;12.80;99.90
15821;DHT22;8011;51.650;7.240;2022-10-31T04:24:13;12.70;99.90
15821;DHT22;8011;51.650;7.240;2022-10-31T04:26:38;12.70;99.90
15821;DHT22;8011;51.650;7.240;2022-10-31T04:29:04;12.70;99.90
15821;DHT22;8011;51.650;7.240;2022-10-31T04:31:30;12.80;99.90
15821;DHT22;8011;51.650;7.240;2022-10-31T04:33:55;12.70;99.90
15821;DHT22;8011;51.650;7.240;2022-10-31T04:36:21;12.70;99.90
15821;DHT22;8011;51.650;7.240;2022-10-31T04:38:46;12.70;99.90
15821;DHT22;8011;51.650;7.240;2022-10-31T04:41:12;12.70;99.90
15821;DHT22;8011;51.650;7.240;2022-10-31T04:43:38;12.70;99.90
15821;DHT22;8011;51.650;7.240;2022-10-31T04:46:03;12.70;99.90
15821;DHT22;8011;51.650;7.240;2022-10-31T04:48:29;12.70;99.90
15821;DHT22;8011;51.650;7.240;2022-10-31T04:51:02;12.70;99.90
15821;DHT22;8011;51.650;7.240;2022-10-31T04:53:28;12.60;99.90
15821;DHT22;8011;51.650;7.240;2022-10-31T04:55:54;12.60;99.90
15821;DHT22;8011;51.650;7.240;2022-10-31T04:58:20;12.60;99.90
15821;DHT22;8011;51.650;7.240;2022-10-31T05:00:46;12.60;99.90
15821;DHT22;8011;51.650;7.240;2022-10-31T05:03:11;12.70;99.90
15821;DHT22;8011;51.650;7.240;2022-10-31T05:05:37;12.70;99.90
15821;DHT22;8011;51.650;7.240;2022-10-31T05:08:03;12.70;99.90
15821;DHT22;8011;51.650;7.240;2022-10-31T05:10:30;12.70;99.90
15821;DHT22;8011;51.650;7.240;2022-10-31T05:12:58;12.70;99.90
15821;DHT22;8011;51.650;7.240;2022-10-31T05:15:25;12.70;99.90
15821;DHT22;8011;51.650;7.240;2022-10-31T05:17:51;12.70;99.90
15821;DHT22;8011;51.650;7.240;2022-10-31T05:20:18;12.70;99.90
15821;DHT22;8011;51.650;7.240;2022-10-31T05:22:49;12.70;99.90
15821;DHT22;8011;51.650;7.240;2022-10-31T05:25:16;12.60;99.90
15821;DHT22;8011;51.650;7.240;2022-10-31T05:27:47;12.60;99.90
15821;DHT22;8011;51.650;7.240;2022-10-31T05:30:15;12.50;99.90
15821;DHT22;8011;51.650;7.240;2022-10-31T05:32:43;12.60;99.90
15821;DHT22;8011;51.650;7.240;2022-10-31T05:35:15;12.60;99.90
15821;DHT22;8011;51.650;7.240;2022-10-31T05:37:41;12.50;99.90
15821;DHT22;8011;51.650;7.240;2022-10-31T05:40:09;12.50;99.90
15821;DHT22;8011;51.650;7.240;2022-10-31T05:42:35;12.60;99.90
15821;DHT22;8011;51.650;7.240;2022-10-31T05:45:03;12.60;99.90
15821;DHT22;8011;51.650;7.240;2022-10-31T05:47:29;12.50;99.90
15821;DHT22;8011;51.650;7.240;2022-10-31T05:49:54;12.60;99.90
15821;DHT22;8011;51.650;7.240;2022-10-31T05:52:20;12.60;99.90
15821;DHT22;8011;51.650;7.240;2022-10-31T05:54:46;12.60;99.90
15821;DHT22;8011;51.650;7.240;2022-10-31T05:57:11;12.60;99.90
15821;DHT22;8011;51.650;7.240;2022-10-31T05:59:37;12.60;99.90
15821;DHT22;8011;51.650;7.240;2022-10-31T06:02:02;12.60;99.90
15821;DHT22;8011;51.650;7.240;2022-10-31T06:04:28;12.60;99.90
15821;DHT22;8011;51.650;7.240;2022-10-31T06:06:54;12.50;99.90
15821;DHT22;8011;51.650;7.240;2022-10-31T06:09:19;12.50;99.90
15821;DHT22;8011;51.650;7.240;2022-10-31T06:11:45;12.50;99.90
15821;DHT22;8011;51.650;7.240;2022-10-31T06:14:10;12.40;99.90
15821;DHT22;8011;51.650;7.240;2022-10-31T06:16:36;12.40;99.90
15821;DHT22;8011;51.650;7.240;2022-10-31T06:19:02;12.40;99.90
15821;DHT22;8011;51.650;7.240;2022-10-31T06:21:27;12.50;99.90
15821;DHT22;8011;51.650;7.240;2022-10-31T06:23:53;12.50;99.90
15821;DHT22;8011;51.650;7.240;2022-10-31T06:26:18;12.40;99.90
15821;DHT22;8011;51.650;7.240;2022-10-31T06:28:44;12.50;99.90
15821;DHT22;8011;51.650;7.240;2022-10-31T06:31:10;12.40;99.90
15821;DHT22;8011;51.650;7.240;2022-10-31T06:33:35;12.40;99.90
15821;DHT22;8011;51.650;7.240;2022-10-31T06:36:01;12.40;99.90
15821;DHT22;8011;51.650;7.240;2022-10-31T06:38:27;12.40;99.90
15821;DHT22;8011;51.650;7.240;2022-10-31T06:40:54;12.40;99.90
15821;DHT22;8011;51.650;7.240;2022-10-31T06:43:21;12.40;99.90
15821;DHT22;8011;51.650;7.240;2022-10-31T06:45:47;12.40;99.90
15821;DHT22;8011;51.650;7.240;2022-10-31T06:48:13;12.40;99.90
15821;DHT22;8011;51.650;7.240;2022-10-31T06:50:39;12.40;99.90
15821;DHT22;8011;51.650;7.240;2022-10-31T06:53:04;12.40;99.90
15821;DHT22;8011;51.650;7.240;2022-10-31T06:55:30;12.40;99.90
15821;DHT22;8011;51.650;7.240;2022-10-31T06:57:57;12.40;99.90
15821;DHT22;8011;51.650;7.240;2022-10-31T07:00:25;12.40;99.90
15821;DHT22;8011;51.650;7.240;2022-10-31T07:02:59;12.50;99.90
15821;DHT22;8011;51.650;7.240;2022-10-31T07:05:25;12.50;99.90
15821;DHT22;8011;51.650;7.240;2022-10-31T07:07:55;12.50;99.90
15821;DHT22;8011;51.650;7.240;2022-10-31T07:10:22;12.50;99.90
15821;DHT22;8011;51.650;7.240;2022-10-31T07:12:48;12.50;99.90
15821;DHT22;8011;51.650;7.240;2022-10-31T07:15:14;12.50;99.90
15821;DHT22;8011;51.650;7.240;2022-10-31T07:17:39;12.50;99.90
15821;DHT22;8011;51.650;7.240;2022-10-31T07:20:05;12.50;99.90
15821;DHT22;8011;51.650;7.240;2022-10-31T07:22:35;12.50;99.90
15821;DHT22;8011;51.650;7.240;2022-10-31T07:25:01;12.60;99.90
15821;DHT22;8011;51.650;7.240;2022-10-31T07:27:27;12.70;99.90
15821;DHT22;8011;51.650;7.240;2022-10-31T07:29:52;12.70;99.90
15821;DHT22;8011;51.650;7.240;2022-10-31T07:32:18;12.80;99.90
15821;DHT22;8011;51.650;7.240;2022-10-31T07:34:44;12.90;99.90
15821;DHT22;8011;51.650;7.240;2022-10-31T07:37:09;12.90;99.90
15821;DHT22;8011;51.650;7.240;2022-10-31T07:39:35;12.90;99.90
15821;DHT22;8011;51.650;7.240;2022-10-31T07:42:00;12.90;99.90
15821;DHT22;8011;51.650;7.240;2022-10-31T07:44:26;12.90;99.90
15821;DHT22;8011;51.650;7.240;2022-10-31T07:46:52;13.00;99.90
15821;DHT22;8011;51.650;7.240;2022-10-31T07:49:17;13.00;99.90
15821;DHT22;8011;51.650;7.240;2022-10-31T07:51:43;13.00;99.90
15821;DHT22;8011;51.650;7.240;2022-10-31T07:54:08;13.00;99.90
15821;DHT22;8011;51.650;7.240;2022-10-31T07:56:34;13.00;99.90
15821;DHT22;8011;51.650;7.240;2022-10-31T07:58:59;13.00;99.90
15821;DHT22;8011;51.650;7.240;2022-10-31T08:01:25;13.00;99.90
15821;DHT22;8011;51.650;7.240;2022-10-31T08:03:51;13.00;99.90
15821;DHT22;8011;51.650;7.240;2022-10-31T08:06:16;13.10;99.90
15821;DHT22;8011;51.650;7.240;2022-10-31T08:08:42;13.10;99.90
15821;DHT22;8011;51.650;7.240;2022-10-31T08:11:08;13.10;99.90
15821;DHT22;8011;51.650;7.240;2022-10-31T08:13:33;13.10;99.90
15821;DHT22;8011;51.650;7.240;2022-10-31T08:15:59;13.10;99.90
15821;DHT22;8011;51.650;7.240;2022-10-31T08:18:29;13.10;99.90
15821;DHT22;8011;51.650;7.240;2022-10-31T08:20:55;13.10;99.90
15821;DHT22;8011;51.650;7.240;2022-10-31T08:23:21;13.20;99.90
15821;DHT22;8011;51.650;7.240;2022-10-31T08:25:47;13.10;99.90
15821;DHT22;8011;51.650;7.240;2022-10-31T08:28:14;13.10;99.90
15821;DHT22;8011;51.650;7.240;2022-10-31T08:30:40;13.20;99.90
15821;DHT22;8011;51.650;7.240;2022-10-31T08:33:12;13.20;99.90
15821;DHT22;8011;51.650;7.240;2022-10-31T08:35:37;13.20;99.90
15821;DHT22;8011;51.650;7.240;2022-10-31T08:38:03;13.30;99.90
15821;DHT22;8011;51.650;7.240;2022-10-31T08:40:30;13.30;99.90
15821;DHT22;8011;51.650;7.240;2022-10-31T08:43:04;13.30;99.90
15821;DHT22;8011;51.650;7.240;2022-10-31T08:45:32;13.30;99.90
15821;DHT22;8011;51.650;7.240;2022-10-31T08:48:03;13.30;99.90
15821;DHT22;8011;51.650;7.240;2022-10-31T08:50:30;13.40;99.90
15821;DHT22;8011;51.650;7.240;2022-10-31T08:53:20;13.40;99.90
15821;DHT22;8011;51.650;7.240;2022-10-31T08:55:46;13.40;99.90
15821;DHT22;8011;51.650;7.240;2022-10-31T08:58:17;13.40;99.90
15821;DHT22;8011;51.650;7.240;2022-10-31T09:00:44;13.50;99.90
15821;DHT22;8011;51.650;7.240;2022-10-31T09:03:15;13.50;99.90
15821;DHT22;8011;51.650;7.240;2022-10-31T09:05:41;13.60;99.90
15821;DHT22;8011;51.650;7.240;2022-10-31T09:08:07;13.60;99.90
15821;DHT22;8011;51.650;7.240;2022-10-31T09:10:34;13.70;99.90
15821;DHT22;8011;51.650;7.240;2022-10-31T09:13:03;13.70;99.90
15821;DHT22;8011;51.650;7.240;2022-10-31T09:15:33;13.70;99.90
15821;DHT22;8011;51.650;7.240;2022-10-31T09:17:59;13.80;99.90
15821;DHT22;8011;51.650;7.240;2022-10-31T09:20:27;13.80;99.90
15821;DHT22;8011;51.650;7.240;2022-10-31T09:23:03;13.80;99.90
15821;DHT22;8011;51.650;7.240;2022-10-31T09:25:30;13.80;99.90
15821;DHT22;8011;51.650;7.240;2022-10-31T09:27:56;13.90;99.90
15821;DHT22;8011;51.650;7.240;2022-10-31T09:30:23;14.00;99.90
15821;DHT22;8011;51.650;7.240;2022-10-31T09:32:54;14.00;99.90
15821;DHT22;8011;51.650;7.240;2022-10-31T09:35:19;14.10;99.90
15821;DHT22;8011;51.650;7.240;2022-10-31T09:37:45;14.10;99.90
15821;DHT22;8011;51.650;7.240;2022-10-31T09:40:10;14.20;99.90
15821;DHT22;8011;51.650;7.240;2022-10-31T09:45:36;14.30;99.90
15821;DHT22;8011;51.650;7.240;2022-10-31T09:50:49;14.40;99.90
15821;DHT22;8011;51.650;7.240;2022-10-31T09:55:47;14.60;99.90
15821;DHT22;8011;51.650;7.240;2022-10-31T09:58:30;14.60;99.90
15821;DHT22;8011;51.650;7.240;2022-10-31T10:01:00;14.70;99.90
15821;DHT22;8011;51.650;7.240;2022-10-31T10:06:26;14.80;99.90
15821;DHT22;8011;51.650;7.240;2022-10-31T10:08:52;14.90;99.90
15821;DHT22;8011;51.650;7.240;2022-10-31T10:21:46;15.10;99.90
15821;DHT22;8011;51.650;7.240;2022-10-31T10:30:18;15.30;99.90
15821;DHT22;8011;51.650;7.240;2022-10-31T10:32:51;15.30;99.90
15821;DHT22;8011;51.650;7.240;2022-10-31T10:35:22;15.30;99.90
15821;DHT22;8011;51.650;7.240;2022-10-31T10:37:52;15.40;99.90
15821;DHT22;8011;51.650;7.240;2022-10-31T10:40:27;15.40;99.90
15821;DHT22;8011;51.650;7.240;2022-10-31T10:59:45;15.70;99.90
15821;DHT22;8011;51.650;7.240;2022-10-31T11:02:24;15.70;99.90
15821;DHT22;8011;51.650;7.240;2022-10-31T11:04:55;15.80;99.90
15821;DHT22;8011;51.650;7.240;2022-10-31T11:07:22;15.80;99.90
15821;DHT22;8011;51.650;7.240;2022-10-31T11:10:11;15.90;99.90
15821;DHT22;8011;51.650;7.240;2022-10-31T11:12:40;16.00;99.90
15821;DHT22;8011;51.650;7.240;2022-10-31T11:15:18;16.00;99.90
15821;DHT22;8011;51.650;7.240;2022-10-31T11:17:48;16.00;99.90
15821;DHT22;8011;51.650;7.240;2022-10-31T11:22:45;16.10;99.90
15821;DHT22;8011;51.650;7.240;2022-10-31T11:25:23;16.20;99.90
15821;DHT22;8011;51.650;7.240;2022-10-31T11:28:00;16.20;99.90
15821;DHT22;8011;51.650;7.240;2022-10-31T11:30:27;16.20;99.90
15821;DHT22;8011;51.650;7.240;2022-10-31T11:32:53;16.30;99.90
15821;DHT22;8011;51.650;7.240;2022-10-31T11:35:20;16.30;99.90
15821;DHT22;8011;51.650;7.240;2022-10-31T11:37:48;16.30;99.90
15821;DHT22;8011;51.650;7.240;2022-10-31T11:40:25;16.40;99.90
15821;DHT22;8011;51.650;7.240;2022-10-31T11:42:53;16.40;99.90
15821;DHT22;8011;51.650;7.240;2022-10-31T11:45:32;16.40;99.90
15821;DHT22;8011;51.650;7.240;2022-10-31T11:48:00;16.40;99.90
15821;DHT22;8011;51.650;7.240;2022-10-31T11:50:39;16.40;99.90
15821;DHT22;8011;51.650;7.240;2022-10-31T11:53:20;16.50;99.90
15821;DHT22;8011;51.650;7.240;2022-10-31T11:58:31;16.50;99.90
15821;DHT22;8011;51.650;7.240;2022-10-31T12:00:58;16.50;99.90
15821;DHT22;8011;51.650;7.240;2022-10-31T12:05:57;16.60;99.90
15821;DHT22;8011;51.650;7.240;2022-10-31T12:08:29;16.60;99.90
15821;DHT22;8011;51.650;7.240;2022-10-31T12:13:53;16.70;99.90
15821;DHT22;8011;51.650;7.240;2022-10-31T12:16:59;16.70;99.90
15821;DHT22;8011;51.650;7.240;2022-10-31T12:33:38;17.00;99.90
15821;DHT22;8011;51.650;7.240;2022-10-31T12:36:37;17.00;99.90
15821;DHT22;8011;51.650;7.240;2022-10-31T12:50:20;17.10;99.90
15821;DHT22;8011;51.650;7.240;2022-10-31T12:59:02;17.30;99.90
15821;DHT22;8011;51.650;7.240;2022-10-31T13:01:37;17.30;99.90
15821;DHT22;8011;51.650;7.240;2022-10-31T13:07:10;17.30;99.90
15821;DHT22;8011;51.650;7.240;2022-10-31T13:09:41;17.30;99.90
15821;DHT22;8011;51.650;7.240;2022-10-31T13:12:11;17.40;99.90
15821;DHT22;8011;51.650;7.240;2022-10-31T13:14:57;17.40;99.90
15821;DHT22;8011;51.650;7.240;2022-10-31T13:17:49;17.40;99.90
15821;DHT22;8011;51.650;7.240;2022-10-31T13:20:18;17.40;99.90
15821;DHT22;8011;51.650;7.240;2022-10-31T13:22:56;17.50;99.90
15821;DHT22;8011;51.650;7.240;2022-10-31T13:25:28;17.50;99.90
15821;DHT22;8011;51.650;7.240;2022-10-31T13:27:59;17.50;99.90
15821;DHT22;8011;51.650;7.240;2022-10-31T13:30:36;17.60;99.90
15821;DHT22;8011;51.650;7.240;2022-10-31T13:33:18;17.60;99.90
15821;DHT22;8011;51.650;7.240;2022-10-31T13:38:51;17.60;99.90
15821;DHT22;8011;51.650;7.240;2022-10-31T13:46:50;17.70;99.90
15821;DHT22;8011;51.650;7.240;2022-10-31T13:54:39;17.70;99.90
15821;DHT22;8011;51.650;7.240;2022-10-31T13:57:41;17.70;99.90
15821;DHT22;8011;51.650;7.240;2022-10-31T14:02:57;17.70;99.90
15821;DHT22;8011;51.650;7.240;2022-10-31T14:05:31;17.70;99.90
15821;DHT22;8011;51.650;7.240;2022-10-31T14:08:01;17.70;99.90
15821;DHT22;8011;51.650;7.240;2022-10-31T14:10:30;17.70;99.90
15821;DHT22;8011;51.650;7.240;2022-10-31T14:15:30;17.70;99.90
15821;DHT22;8011;51.650;7.240;2022-10-31T14:18:02;17.70;99.90
15821;DHT22;8011;51.650;7.240;2022-10-31T14:23:25;17.70;99.90
15821;DHT22;8011;51.650;7.240;2022-10-31T14:25:51;17.70;99.90
15821;DHT22;8011;51.650;7.240;2022-10-31T14:28:36;17.70;99.90
15821;DHT22;8011;51.650;7.240;2022-10-31T14:31:02;17.70;99.90
15821;DHT22;8011;51.650;7.240;2022-10-31T14:33:29;17.70;99.90
15821;DHT22;8011;51.650;7.240;2022-10-31T14:36:09;17.70;99.90
15821;DHT22;8011;51.650;7.240;2022-10-31T14:44:01;17.70;99.90
15821;DHT22;8011;51.650;7.240;2022-10-31T14:46:54;17.80;99.90
15821;DHT22;8011;51.650;7.240;2022-10-31T14:49:42;17.80;99.90
15821;DHT22;8011;51.650;7.240;2022-10-31T14:52:14;17.80;99.90
15821;DHT22;8011;51.650;7.240;2022-10-31T14:54:45;17.80;99.90
15821;DHT22;8011;51.650;7.240;2022-10-31T14:57:25;17.80;99.90
15821;DHT22;8011;51.650;7.240;2022-10-31T15:00:03;17.80;99.90
15821;DHT22;8011;51.650;7.240;2022-10-31T15:05:16;17.80;99.90
15821;DHT22;8011;51.650;7.240;2022-10-31T15:07:52;17.80;99.90
15821;DHT22;8011;51.650;7.240;2022-10-31T15:10:31;17.80;99.90
15821;DHT22;8011;51.650;7.240;2022-10-31T15:13:18;17.80;99.90
15821;DHT22;8011;51.650;7.240;2022-10-31T15:15:44;17.70;99.90
15821;DHT22;8011;51.650;7.240;2022-10-31T15:18:17;17.80;99.90
15821;DHT22;8011;51.650;7.240;2022-10-31T15:20:44;17.70;99.90
15821;DHT22;8011;51.650;7.240;2022-10-31T15:23:14;17.70;99.90
15821;DHT22;8011;51.650;7.240;2022-10-31T15:25:41;17.70;99.90
15821;DHT22;8011;51.650;7.240;2022-10-31T15:28:15;17.70;99.90
15821;DHT22;8011;51.650;7.240;2022-10-31T15:30:50;17.60;99.90
15821;DHT22;8011;51.650;7.240;2022-10-31T15:33:25;17.60;99.90
15821;DHT22;8011;51.650;7.240;2022-10-31T15:35:56;17.60;99.90
15821;DHT22;8011;51.650;7.240;2022-10-31T15:38:23;17.70;99.90
15821;DHT22;8011;51.650;7.240;2022-10-31T15:40:58;17.60;99.90
15821;DHT22;8011;51.650;7.240;2022-10-31T15:43:25;17.60;99.90
15821;DHT22;8011;51.650;7.240;2022-10-31T15:45:52;17.60;99.90
15821;DHT22;8011;51.650;7.240;2022-10-31T15:48:24;17.60;99.90
15821;DHT22;8011;51.650;7.240;2022-10-31T15:50:55;17.60;99.90
15821;DHT22;8011;51.650;7.240;2022-10-31T15:53:43;17.60;99.90
15821;DHT22;8011;51.650;7.240;2022-10-31T15:56:18;17.60;99.90
15821;DHT22;8011;51.650;7.240;2022-10-31T15:58:47;17.60;99.90
15821;DHT22;8011;51.650;7.240;2022-10-31T16:01:23;17.60;99.90
15821;DHT22;8011;51.650;7.240;2022-10-31T16:04:46;17.50;99.90
15821;DHT22;8011;51.650;7.240;2022-10-31T16:06:44;17.60;99.90
15821;DHT22;8011;51.650;7.240;2022-10-31T16:09:23;17.50;99.90
15821;DHT22;8011;51.650;7.240;2022-10-31T16:11:49;17.50;99.90
15821;DHT22;8011;51.650;7.240;2022-10-31T16:14:22;17.50;99.90
15821;DHT22;8011;51.650;7.240;2022-10-31T16:16:51;17.40;99.90
15821;DHT22;8011;51.650;7.240;2022-10-31T16:19:28;17.40;99.90
15821;DHT22;8011;51.650;7.240;2022-10-31T16:22:02;17.40;99.90
15821;DHT22;8011;51.650;7.240;2022-10-31T16:24:31;17.40;99.90
15821;DHT22;8011;51.650;7.240;2022-10-31T16:27:06;17.40;99.90
15821;DHT22;8011;51.650;7.240;2022-10-31T16:29:36;17.30;99.90
15821;DHT22;8011;51.650;7.240;2022-10-31T16:32:03;17.30;99.90
15821;DHT22;8011;51.650;7.240;2022-10-31T16:34:29;17.30;99.90
15821;DHT22;8011;51.650;7.240;2022-10-31T16:36:55;17.30;99.90
15821;DHT22;8011;51.650;7.240;2022-10-31T16:39:20;17.30;99.90
15821;DHT22;8011;51.650;7.240;2022-10-31T16:41:48;17.30;99.90
15821;DHT22;8011;51.650;7.240;2022-10-31T16:44:22;17.30;99.90
15821;DHT22;8011;51.650;7.240;2022-10-31T16:46:52;17.30;99.90
15821;DHT22;8011;51.650;7.240;2022-10-31T16:49:26;17.30;99.90
15821;DHT22;8011;51.650;7.240;2022-10-31T16:51:52;17.30;99.90
15821;DHT22;8011;51.650;7.240;2022-10-31T16:54:17;17.30;99.90
15821;DHT22;8011;51.650;7.240;2022-10-31T16:56:43;17.30;99.90
15821;DHT22;8011;51.650;7.240;2022-10-31T16:59:11;17.20;99.90
15821;DHT22;8011;51.650;7.240;2022-10-31T17:01:38;17.20;99.90
15821;DHT22;8011;51.650;7.240;2022-10-31T17:04:04;17.20;99.90
15821;DHT22;8011;51.650;7.240;2022-10-31T17:06:30;17.20;99.90
15821;DHT22;8011;51.650;7.240;2022-10-31T17:08:56;17.20;99.90
15821;DHT22;8011;51.650;7.240;2022-10-31T17:11:23;17.20;99.90
15821;DHT22;8011;51.650;7.240;2022-10-31T17:14:03;17.20;99.90
15821;DHT22;8011;51.650;7.240;2022-10-31T17:16:29;17.10;99.90
15821;DHT22;8011;51.650;7.240;2022-10-31T17:18:55;17.10;99.90
15821;DHT22;8011;51.650;7.240;2022-10-31T17:21:22;17.10;99.90
15821;DHT22;8011;51.650;7.240;2022-10-31T17:23:51;17.00;99.90
15821;DHT22;8011;51.650;7.240;2022-10-31T17:26:17;17.00;99.90
15821;DHT22;8011;51.650;7.240;2022-10-31T17:28:43;17.00;99.90
15821;DHT22;8011;51.650;7.240;2022-10-31T17:31:22;17.00;99.90
15821;DHT22;8011;51.650;7.240;2022-10-31T17:33:49;17.00;99.90
15821;DHT22;8011;51.650;7.240;2022-10-31T17:36:14;16.90;99.90
15821;DHT22;8011;51.650;7.240;2022-10-31T17:38:40;16.90;99.90
15821;DHT22;8011;51.650;7.240;2022-10-31T17:41:06;17.00;99.90
15821;DHT22;8011;51.650;7.240;2022-10-31T17:43:32;16.90;99.90
15821;DHT22;8011;51.650;7.240;2022-10-31T17:45:59;16.90;99.90
15821;DHT22;8011;51.650;7.240;2022-10-31T17:48:26;16.80;99.90
15821;DHT22;8011;51.650;7.240;2022-10-31T17:50:51;16.80;99.90
15821;DHT22;8011;51.650;7.240;2022-10-31T17:53:17;16.80;99.90
15821;DHT22;8011;51.650;7.240;2022-10-31T17:55:42;16.80;99.90
15821;DHT22;8011;51.650;7.240;2022-10-31T17:58:09;16.80;99.90
15821;DHT22;8011;51.650;7.240;2022-10-31T18:00:39;16.80;99.90
15821;DHT22;8011;51.650;7.240;2022-10-31T18:03:06;16.80;99.90
15821;DHT22;8011;51.650;7.240;2022-10-31T18:05:32;16.80;99.90
15821;DHT22;8011;51.650;7.240;2022-10-31T18:07:58;16.80;99.90
15821;DHT22;8011;51.650;7.240;2022-10-31T18:10:24;16.70;99.90
15821;DHT22;8011;51.650;7.240;2022-10-31T18:12:50;16.70;99.90
15821;DHT22;8011;51.650;7.240;2022-10-31T18:15:16;16.70;99.90
15821;DHT22;8011;51.650;7.240;2022-10-31T18:17:42;16.80;99.90
15821;DHT22;8011;51.650;7.240;2022-10-31T18:20:08;16.70;99.90
15821;DHT22;8011;51.650;7.240;2022-10-31T18:22:35;16.70;99.90
15821;DHT22;8011;51.650;7.240;2022-10-31T18:25:08;16.70;99.90
15821;DHT22;8011;51.650;7.240;2022-10-31T18:27:40;16.70;99.90
15821;DHT22;8011;51.650;7.240;2022-10-31T18:30:06;16.70;99.90
15821;DHT22;8011;51.650;7.240;2022-10-31T18:32:32;16.70;99.90
15821;DHT22;8011;51.650;7.240;2022-10-31T18:34:58;16.70;99.90
15821;DHT22;8011;51.650;7.240;2022-10-31T18:37:26;16.70;99.90
15821;DHT22;8011;51.650;7.240;2022-10-31T18:39:52;16.70;99.90
15821;DHT22;8011;51.650;7.240;2022-10-31T18:42:21;16.80;99.90
15821;DHT22;8011;51.650;7.240;2022-10-31T18:44:48;16.70;99.90
15821;DHT22;8011;51.650;7.240;2022-10-31T18:47:14;16.80;99.90
15821;DHT22;8011;51.650;7.240;2022-10-31T18:49:39;16.80;99.90
15821;DHT22;8011;51.650;7.240;2022-10-31T18:52:05;16.80;99.90
15821;DHT22;8011;51.650;7.240;2022-10-31T18:54:31;16.70;99.90
15821;DHT22;8011;51.650;7.240;2022-10-31T18:56:56;16.80;99.90
15821;DHT22;8011;51.650;7.240;2022-10-31T18:59:22;16.70;99.90
15821;DHT22;8011;51.650;7.240;2022-10-31T19:01:47;16.70;99.90
15821;DHT22;8011;51.650;7.240;2022-10-31T19:04:13;16.70;99.90
15821;DHT22;8011;51.650;7.240;2022-10-31T19:06:39;16.70;99.90
15821;DHT22;8011;51.650;7.240;2022-10-31T19:09:06;16.70;99.90
15821;DHT22;8011;51.650;7.240;2022-10-31T19:11:34;16.70;99.90
15821;DHT22;8011;51.650;7.240;2022-10-31T19:14:01;16.70;99.90
15821;DHT22;8011;51.650;7.240;2022-10-31T19:16:27;16.60;99.90
15821;DHT22;8011;51.650;7.240;2022-10-31T19:18:54;16.60;99.90
15821;DHT22;8011;51.650;7.240;2022-10-31T19:21:21;16.60;99.90
15821;DHT22;8011;51.650;7.240;2022-10-31T19:23:47;16.50;99.90
15821;DHT22;8011;51.650;7.240;2022-10-31T19:26:13;16.50;99.90
15821;DHT22;8011;51.650;7.240;2022-10-31T19:28:40;16.50;99.90
15821;DHT22;8011;51.650;7.240;2022-10-31T19:31:06;16.40;99.90
15821;DHT22;8011;51.650;7.240;2022-10-31T19:33:33;16.30;99.90
15821;DHT22;8011;51.650;7.240;2022-10-31T19:36:00;16.30;99.90
15821;DHT22;8011;51.650;7.240;2022-10-31T19:38:27;16.20;99.90
15821;DHT22;8011;51.650;7.240;2022-10-31T19:41:02;16.20;99.90
15821;DHT22;8011;51.650;7.240;2022-10-31T19:43:28;16.20;99.90
15821;DHT22;8011;51.650;7.240;2022-10-31T19:45:59;16.20;99.90
15821;DHT22;8011;51.650;7.240;2022-10-31T19:48:26;16.10;99.90
15821;DHT22;8011;51.650;7.240;2022-10-31T19:50:52;16.10;99.90
15821;DHT22;8011;51.650;7.240;2022-10-31T19:53:21;16.00;99.90
15821;DHT22;8011;51.650;7.240;2022-10-31T19:55:47;16.00;99.90
15821;DHT22;8011;51.650;7.240;2022-10-31T19:58:12;16.00;99.90
15821;DHT22;8011;51.650;7.240;2022-10-31T20:00:39;15.90;99.90
15821;DHT22;8011;51.650;7.240;2022-10-31T20:03:04;15.90;99.90
15821;DHT22;8011;51.650;7.240;2022-10-31T20:05:30;15.90;99.90
15821;DHT22;8011;51.650;7.240;2022-10-31T20:07:56;15.90;99.90
15821;DHT22;8011;51.650;7.240;2022-10-31T20:10:22;15.90;99.90
15821;DHT22;8011;51.650;7.240;2022-10-31T20:12:48;15.90;99.90
15821;DHT22;8011;51.650;7.240;2022-10-31T20:15:13;15.80;99.90
15821;DHT22;8011;51.650;7.240;2022-10-31T20:17:39;15.80;99.90
15821;DHT22;8011;51.650;7.240;2022-10-31T20:20:05;15.80;99.90
15821;DHT22;8011;51.650;7.240;2022-10-31T20:22:35;15.80;99.90
15821;DHT22;8011;51.650;7.240;2022-10-31T20:25:00;15.70;99.90
15821;DHT22;8011;51.650;7.240;2022-10-31T20:27:26;15.70;99.90
15821;DHT22;8011;51.650;7.240;2022-10-31T20:29:52;15.70;99.90
15821;DHT22;8011;51.650;7.240;2022-10-31T20:32:19;15.60;99.90
15821;DHT22;8011;51.650;7.240;2022-10-31T20:34:44;15.60;99.90
15821;DHT22;8011;51.650;7.240;2022-10-31T20:37:10;15.60;99.90
15821;DHT22;8011;51.650;7.240;2022-10-31T20:39:35;15.50;99.90
15821;DHT22;8011;51.650;7.240;2022-10-31T20:42:02;15.50;99.90
15821;DHT22;8011;51.650;7.240;2022-10-31T20:44:28;15.50;99.90
15821;DHT22;8011;51.650;7.240;2022-10-31T20:46:54;15.50;99.90
15821;DHT22;8011;51.650;7.240;2022-10-31T20:49:20;15.50;99.90
15821;DHT22;8011;51.650;7.240;2022-10-31T20:51:46;15.50;99.90
15821;DHT22;8011;51.650;7.240;2022-10-31T20:54:12;15.40;99.90
15821;DHT22;8011;51.650;7.240;2022-10-31T20:56:38;15.40;99.90
15821;DHT22;8011;51.650;7.240;2022-10-31T20:59:04;15.30;99.90
15821;DHT22;8011;51.650;7.240;2022-10-31T21:01:32;15.30;99.90
15821;DHT22;8011;51.650;7.240;2022-10-31T21:04:00;15.30;99.90
15821;DHT22;8011;51.650;7.240;2022-10-31T21:06:27;15.20;99.90
15821;DHT22;8011;51.650;7.240;2022-10-31T21:08:53;15.20;99.90
15821;DHT22;8011;51.650;7.240;2022-10-31T21:11:21;15.20;99.90
15821;DHT22;8011;51.650;7.240;2022-10-31T21:13:47;15.20;99.90
15821;DHT22;8011;51.650;7.240;2022-10-31T21:16:15;15.20;99.90
15821;DHT22;8011;51.650;7.240;2022-10-31T21:18:43;15.20;99.90
15821;DHT22;8011;51.650;7.240;2022-10-31T21:21:24;15.20;99.90
15821;DHT22;8011;51.650;7.240;2022-10-31T21:23:54;15.20;99.90
15821;DHT22;8011;51.650;7.240;2022-10-31T21:26:21;15.20;99.90
15821;DHT22;8011;51.650;7.240;2022-10-31T21:28:48;15.10;99.90
15821;DHT22;8011;51.650;7.240;2022-10-31T21:31:16;15.10;99.90
15821;DHT22;8011;51.650;7.240;2022-10-31T21:33:43;15.10;99.90
15821;DHT22;8011;51.650;7.240;2022-10-31T21:36:10;15.00;99.90
15821;DHT22;8011;51.650;7.240;2022-10-31T21:38:36;15.00;99.90
15821;DHT22;8011;51.650;7.240;2022-10-31T21:41:05;15.00;99.90
15821;DHT22;8011;51.650;7.240;2022-10-31T21:43:31;14.90;99.90
15821;DHT22;8011;51.650;7.240;2022-10-31T21:46:07;14.90;99.90
15821;DHT22;8011;51.650;7.240;2022-10-31T21:48:35;15.00;99.90
15821;DHT22;8011;51.650;7.240;2022-10-31T21:51:04;15.00;99.90
15821;DHT22;8011;51.650;7.240;2022-10-31T21:53:30;15.00;99.90
15821;DHT22;8011;51.650;7.240;2022-10-31T21:56:15;15.00;99.90